sensor_id;sensor_type;location;lat;lon;timestamp;P1;durP1;ratioP1;P2;durP2;ratioP2
73980;SDS011;62348;51.412;5.436;2023-02-03T00:02:18;19.48;;;10.32;;
73980;SDS011;62348;51.412;5.436;2023-02-03T00:04:47;20.75;;;9.57;;
73980;SDS011;62348;51.412;5.436;2023-02-03T00:07:12;20.02;;;10.82;;
73980;SDS011;62348;51.412;5.436;2023-02-03T00:09:38;18.70;;;10.48;;
73980;SDS011;62348;51.412;5.436;2023-02-03T00:12:04;16.00;;;9.50;;
73980;SDS011;62348;51.412;5.436;2023-02-03T00:14:30;21.90;;;9.75;;
73980;SDS011;62348;51.412;5.436;2023-02-03T00:16:57;16.45;;;9.90;;
73980;SDS011;62348;51.412;5.436;2023-02-03T00:19:23;16.55;;;9.80;;
73980;SDS011;62348;51.412;5.436;2023-02-03T00:21:48;18.95;;;10.02;;
73980;SDS011;62348;51.412;5.436;2023-02-03T00:24:13;19.70;;;9.95;;
73980;SDS011;62348;51.412;5.436;2023-02-03T00:26:40;24.38;;;9.82;;
73980;SDS011;62348;51.412;5.436;2023-02-03T00:29:08;19.52;;;10.27;;
73980;SDS011;62348;51.412;5.436;2023-02-03T00:31:33;17.83;;;10.05;;
73980;SDS011;62348;51.412;5.436;2023-02-03T00:33:59;18.90;;;9.73;;
73980;SDS011;62348;51.412;5.436;2023-02-03T00:36:25;19.98;;;9.90;;
73980;SDS011;62348;51.412;5.436;2023-02-03T00:38:50;16.33;;;9.10;;
73980;SDS011;62348;51.412;5.436;2023-02-03T00:41:16;18.52;;;9.27;;
73980;SDS011;62348;51.412;5.436;2023-02-03T00:43:42;16.67;;;9.82;;
73980;SDS011;62348;51.412;5.436;2023-02-03T00:46:08;19.48;;;9.05;;
73980;SDS011;62348;51.412;5.436;2023-02-03T00:48:33;21.38;;;9.15;;
73980;SDS011;62348;51.412;5.436;2023-02-03T00:50:59;17.75;;;8.93;;
73980;SDS011;62348;51.412;5.436;2023-02-03T00:53:24;16.20;;;8.45;;
73980;SDS011;62348;51.412;5.436;2023-02-03T00:55:50;15.82;;;8.77;;
73980;SDS011;62348;51.412;5.436;2023-02-03T00:58:16;16.45;;;8.95;;
73980;SDS011;62348;51.412;5.436;2023-02-03T01:00:41;11.98;;;7.53;;
73980;SDS011;62348;51.412;5.436;2023-02-03T01:03:07;18.10;;;8.18;;
73980;SDS011;62348;51.412;5.436;2023-02-03T01:05:32;13.40;;;8.68;;
73980;SDS011;62348;51.412;5.436;2023-02-03T01:07:59;22.00;;;7.90;;
73980;SDS011;62348;51.412;5.436;2023-02-03T01:10:25;19.90;;;8.20;;
73980;SDS011;62348;51.412;5.436;2023-02-03T01:12:50;13.75;;;6.75;;
73980;SDS011;62348;51.412;5.436;2023-02-03T01:15:16;12.52;;;5.15;;
73980;SDS011;62348;51.412;5.436;2023-02-03T01:17:41;18.42;;;6.60;;
73980;SDS011;62348;51.412;5.436;2023-02-03T01:20:07;10.50;;;5.28;;
73980;SDS011;62348;51.412;5.436;2023-02-03T01:22:36;15.20;;;5.85;;
73980;SDS011;62348;51.412;5.436;2023-02-03T01:25:01;9.88;;;4.50;;
73980;SDS011;62348;51.412;5.436;2023-02-03T01:27:26;10.70;;;4.13;;
73980;SDS011;62348;51.412;5.436;2023-02-03T01:29:52;12.80;;;4.95;;
73980;SDS011;62348;51.412;5.436;2023-02-03T01:32:17;8.75;;;4.65;;
73980;SDS011;62348;51.412;5.436;2023-02-03T01:34:43;8.98;;;4.35;;
73980;SDS011;62348;51.412;5.436;2023-02-03T01:37:08;15.13;;;4.72;;
73980;SDS011;62348;51.412;5.436;2023-02-03T01:39:33;16.30;;;4.63;;
73980;SDS011;62348;51.412;5.436;2023-02-03T01:41:59;9.63;;;4.18;;
73980;SDS011;62348;51.412;5.436;2023-02-03T01:52:33;10.80;;;4.03;;
73980;SDS011;62348;51.412;5.436;2023-02-03T01:55:01;10.70;;;3.65;;
73980;SDS011;62348;51.412;5.436;2023-02-03T01:57:31;10.55;;;4.05;;
73980;SDS011;62348;51.412;5.436;2023-02-03T02:00:00;9.88;;;4.25;;
73980;SDS011;62348;51.412;5.436;2023-02-03T02:02:28;15.57;;;4.82;;
73980;SDS011;62348;51.412;5.436;2023-02-03T02:05:05;14.25;;;4.15;;
73980;SDS011;62348;51.412;5.436;2023-02-03T02:07:37;9.35;;;3.47;;
73980;SDS011;62348;51.412;5.436;2023-02-03T02:10:05;10.98;;;3.72;;
73980;SDS011;62348;51.412;5.436;2023-02-03T02:12:30;10.40;;;4.18;;
73980;SDS011;62348;51.412;5.436;2023-02-03T02:14:56;10.13;;;3.47;;
73980;SDS011;62348;51.412;5.436;2023-02-03T02:23:05;12.05;;;4.32;;
73980;SDS011;62348;51.412;5.436;2023-02-03T02:33:58;12.57;;;2.95;;
73980;SDS011;62348;51.412;5.436;2023-02-03T02:36:29;13.00;;;3.00;;
73980;SDS011;62348;51.412;5.436;2023-02-03T02:39:11;11.43;;;3.53;;
73980;SDS011;62348;51.412;5.436;2023-02-03T02:44:38;6.90;;;3.30;;
73980;SDS011;62348;51.412;5.436;2023-02-03T02:47:17;12.93;;;3.42;;
73980;SDS011;62348;51.412;5.436;2023-02-03T02:52:29;8.48;;;3.00;;
73980;SDS011;62348;51.412;5.436;2023-02-03T02:55:00;10.52;;;3.55;;
73980;SDS011;62348;51.412;5.436;2023-02-03T02:57:31;9.38;;;3.13;;
73980;SDS011;62348;51.412;5.436;2023-02-03T03:00:02;10.02;;;3.17;;
73980;SDS011;62348;51.412;5.436;2023-02-03T03:02:33;8.63;;;2.90;;
73980;SDS011;62348;51.412;5.436;2023-02-03T03:05:00;8.77;;;3.40;;
73980;SDS011;62348;51.412;5.436;2023-02-03T03:07:29;11.68;;;3.40;;
73980;SDS011;62348;51.412;5.436;2023-02-03T03:09:59;10.05;;;3.03;;
73980;SDS011;62348;51.412;5.436;2023-02-03T03:12:31;11.30;;;3.00;;
73980;SDS011;62348;51.412;5.436;2023-02-03T03:15:02;8.07;;;2.75;;
73980;SDS011;62348;51.412;5.436;2023-02-03T03:17:32;7.63;;;3.92;;
73980;SDS011;62348;51.412;5.436;2023-02-03T03:20:07;9.60;;;2.83;;
73980;SDS011;62348;51.412;5.436;2023-02-03T03:22:38;9.60;;;2.80;;
73980;SDS011;62348;51.412;5.436;2023-02-03T03:25:12;7.75;;;2.63;;
73980;SDS011;62348;51.412;5.436;2023-02-03T03:27:41;10.40;;;3.13;;
73980;SDS011;62348;51.412;5.436;2023-02-03T03:32:41;7.40;;;3.05;;
73980;SDS011;62348;51.412;5.436;2023-02-03T03:35:07;6.45;;;2.13;;
73980;SDS011;62348;51.412;5.436;2023-02-03T03:37:48;9.32;;;2.55;;
73980;SDS011;62348;51.412;5.436;2023-02-03T03:40:24;7.38;;;2.60;;
73980;SDS011;62348;51.412;5.436;2023-02-03T03:43:36;6.55;;;2.50;;
73980;SDS011;62348;51.412;5.436;2023-02-03T03:49:01;7.85;;;2.78;;
73980;SDS011;62348;51.412;5.436;2023-02-03T03:54:08;4.70;;;2.20;;
73980;SDS011;62348;51.412;5.436;2023-02-03T03:56:45;7.20;;;2.17;;
73980;SDS011;62348;51.412;5.436;2023-02-03T03:59:17;7.93;;;2.63;;
73980;SDS011;62348;51.412;5.436;2023-02-03T04:01:46;7.03;;;2.58;;
73980;SDS011;62348;51.412;5.436;2023-02-03T04:04:13;5.70;;;2.15;;
73980;SDS011;62348;51.412;5.436;2023-02-03T04:06:40;4.97;;;1.77;;
73980;SDS011;62348;51.412;5.436;2023-02-03T04:09:08;6.63;;;1.98;;
73980;SDS011;62348;51.412;5.436;2023-02-03T04:11:34;7.20;;;2.13;;
73980;SDS011;62348;51.412;5.436;2023-02-03T04:14:18;11.68;;;2.70;;
73980;SDS011;62348;51.412;5.436;2023-02-03T04:16:43;3.90;;;1.95;;
73980;SDS011;62348;51.412;5.436;2023-02-03T04:19:09;5.05;;;1.80;;
73980;SDS011;62348;51.412;5.436;2023-02-03T04:21:34;4.88;;;2.28;;
73980;SDS011;62348;51.412;5.436;2023-02-03T04:23:59;3.88;;;1.67;;
73980;SDS011;62348;51.412;5.436;2023-02-03T04:26:25;3.85;;;2.00;;
73980;SDS011;62348;51.412;5.436;2023-02-03T04:28:50;3.75;;;1.95;;
73980;SDS011;62348;51.412;5.436;2023-02-03T04:31:16;5.47;;;1.80;;
73980;SDS011;62348;51.412;5.436;2023-02-03T04:33:41;7.78;;;2.03;;
73980;SDS011;62348;51.412;5.436;2023-02-03T04:36:07;4.05;;;1.85;;
73980;SDS011;62348;51.412;5.436;2023-02-03T04:38:33;6.15;;;2.65;;
73980;SDS011;62348;51.412;5.436;2023-02-03T04:40:58;9.15;;;1.98;;
73980;SDS011;62348;51.412;5.436;2023-02-03T04:43:24;9.23;;;2.50;;
73980;SDS011;62348;51.412;5.436;2023-02-03T04:45:49;7.93;;;1.80;;
73980;SDS011;62348;51.412;5.436;2023-02-03T04:48:15;7.55;;;2.90;;
73980;SDS011;62348;51.412;5.436;2023-02-03T04:50:40;5.82;;;1.67;;
73980;SDS011;62348;51.412;5.436;2023-02-03T04:53:06;6.72;;;2.25;;
73980;SDS011;62348;51.412;5.436;2023-02-03T04:55:31;5.20;;;1.60;;
73980;SDS011;62348;51.412;5.436;2023-02-03T04:57:57;3.60;;;1.40;;
73980;SDS011;62348;51.412;5.436;2023-02-03T05:00:23;6.10;;;2.10;;
73980;SDS011;62348;51.412;5.436;2023-02-03T05:02:48;6.20;;;1.70;;
73980;SDS011;62348;51.412;5.436;2023-02-03T05:05:14;4.07;;;1.60;;
73980;SDS011;62348;51.412;5.436;2023-02-03T05:07:39;6.40;;;1.60;;
73980;SDS011;62348;51.412;5.436;2023-02-03T05:10:05;4.93;;;1.50;;
73980;SDS011;62348;51.412;5.436;2023-02-03T05:12:31;7.78;;;1.70;;
73980;SDS011;62348;51.412;5.436;2023-02-03T05:14:56;8.77;;;1.98;;
73980;SDS011;62348;51.412;5.436;2023-02-03T05:17:21;4.75;;;1.80;;
73980;SDS011;62348;51.412;5.436;2023-02-03T05:19:47;5.63;;;1.73;;
73980;SDS011;62348;51.412;5.436;2023-02-03T05:22:12;4.80;;;1.92;;
73980;SDS011;62348;51.412;5.436;2023-02-03T05:24:38;5.82;;;1.65;;
73980;SDS011;62348;51.412;5.436;2023-02-03T05:27:03;5.38;;;1.70;;
73980;SDS011;62348;51.412;5.436;2023-02-03T05:29:28;3.40;;;1.73;;
73980;SDS011;62348;51.412;5.436;2023-02-03T05:31:54;6.90;;;1.60;;
73980;SDS011;62348;51.412;5.436;2023-02-03T05:34:19;5.30;;;1.50;;
73980;SDS011;62348;51.412;5.436;2023-02-03T05:36:45;7.25;;;1.92;;
73980;SDS011;62348;51.412;5.436;2023-02-03T05:39:10;5.25;;;1.90;;
73980;SDS011;62348;51.412;5.436;2023-02-03T05:41:35;4.00;;;1.50;;
73980;SDS011;62348;51.412;5.436;2023-02-03T05:44:16;3.88;;;1.80;;
73980;SDS011;62348;51.412;5.436;2023-02-03T05:46:45;4.78;;;1.65;;
73980;SDS011;62348;51.412;5.436;2023-02-03T05:49:11;5.53;;;1.80;;
73980;SDS011;62348;51.412;5.436;2023-02-03T05:51:37;5.90;;;1.90;;
73980;SDS011;62348;51.412;5.436;2023-02-03T05:54:03;6.70;;;1.88;;
73980;SDS011;62348;51.412;5.436;2023-02-03T05:56:29;5.78;;;1.77;;
73980;SDS011;62348;51.412;5.436;2023-02-03T05:58:54;3.60;;;1.52;;
73980;SDS011;62348;51.412;5.436;2023-02-03T06:01:20;4.72;;;1.88;;
73980;SDS011;62348;51.412;5.436;2023-02-03T06:03:46;8.05;;;1.88;;
73980;SDS011;62348;51.412;5.436;2023-02-03T06:06:12;9.30;;;2.00;;
73980;SDS011;62348;51.412;5.436;2023-02-03T06:08:38;5.88;;;1.58;;
73980;SDS011;62348;51.412;5.436;2023-02-03T06:11:03;8.52;;;1.73;;
73980;SDS011;62348;51.412;5.436;2023-02-03T06:13:29;7.15;;;1.77;;
73980;SDS011;62348;51.412;5.436;2023-02-03T06:15:54;7.18;;;2.13;;
73980;SDS011;62348;51.412;5.436;2023-02-03T06:18:20;4.80;;;1.85;;
73980;SDS011;62348;51.412;5.436;2023-02-03T06:20:46;3.10;;;2.03;;
73980;SDS011;62348;51.412;5.436;2023-02-03T06:23:11;4.93;;;1.60;;
73980;SDS011;62348;51.412;5.436;2023-02-03T06:25:37;4.30;;;1.60;;
73980;SDS011;62348;51.412;5.436;2023-02-03T06:28:02;3.70;;;1.50;;
73980;SDS011;62348;51.412;5.436;2023-02-03T06:30:28;7.90;;;1.40;;
73980;SDS011;62348;51.412;5.436;2023-02-03T06:32:53;4.63;;;1.42;;
73980;SDS011;62348;51.412;5.436;2023-02-03T06:35:19;7.35;;;1.60;;
73980;SDS011;62348;51.412;5.436;2023-02-03T06:37:44;5.45;;;1.50;;
73980;SDS011;62348;51.412;5.436;2023-02-03T06:40:10;8.88;;;1.65;;
73980;SDS011;62348;51.412;5.436;2023-02-03T06:42:36;5.88;;;1.35;;
73980;SDS011;62348;51.412;5.436;2023-02-03T06:45:02;5.45;;;1.27;;
73980;SDS011;62348;51.412;5.436;2023-02-03T06:47:27;6.03;;;1.60;;
73980;SDS011;62348;51.412;5.436;2023-02-03T06:49:53;3.63;;;1.60;;
73980;SDS011;62348;51.412;5.436;2023-02-03T06:52:18;8.13;;;2.13;;
73980;SDS011;62348;51.412;5.436;2023-02-03T06:54:44;7.30;;;2.50;;
73980;SDS011;62348;51.412;5.436;2023-02-03T06:57:09;5.53;;;2.20;;
73980;SDS011;62348;51.412;5.436;2023-02-03T06:59:35;5.10;;;1.98;;
73980;SDS011;62348;51.412;5.436;2023-02-03T07:02:00;4.60;;;1.40;;
73980;SDS011;62348;51.412;5.436;2023-02-03T07:04:26;9.75;;;1.65;;
73980;SDS011;62348;51.412;5.436;2023-02-03T07:06:55;3.35;;;1.27;;
73980;SDS011;62348;51.412;5.436;2023-02-03T07:09:21;4.93;;;1.50;;
73980;SDS011;62348;51.412;5.436;2023-02-03T07:11:46;3.92;;;1.75;;
73980;SDS011;62348;51.412;5.436;2023-02-03T07:14:12;4.80;;;1.60;;
73980;SDS011;62348;51.412;5.436;2023-02-03T07:16:37;4.75;;;1.60;;
73980;SDS011;62348;51.412;5.436;2023-02-03T07:19:03;11.32;;;2.17;;
73980;SDS011;62348;51.412;5.436;2023-02-03T07:21:29;6.80;;;1.77;;
73980;SDS011;62348;51.412;5.436;2023-02-03T07:23:54;3.90;;;1.80;;
73980;SDS011;62348;51.412;5.436;2023-02-03T07:26:20;3.40;;;1.55;;
73980;SDS011;62348;51.412;5.436;2023-02-03T07:28:47;6.07;;;1.92;;
73980;SDS011;62348;51.412;5.436;2023-02-03T07:31:13;4.80;;;1.60;;
73980;SDS011;62348;51.412;5.436;2023-02-03T07:33:38;2.55;;;1.42;;
73980;SDS011;62348;51.412;5.436;2023-02-03T07:36:04;4.30;;;1.85;;
73980;SDS011;62348;51.412;5.436;2023-02-03T07:38:31;6.25;;;1.55;;
73980;SDS011;62348;51.412;5.436;2023-02-03T07:40:57;6.75;;;2.05;;
73980;SDS011;62348;51.412;5.436;2023-02-03T07:43:22;4.78;;;1.50;;
73980;SDS011;62348;51.412;5.436;2023-02-03T07:45:48;5.43;;;2.20;;
73980;SDS011;62348;51.412;5.436;2023-02-03T07:48:14;7.70;;;2.33;;
73980;SDS011;62348;51.412;5.436;2023-02-03T07:50:40;6.13;;;1.80;;
73980;SDS011;62348;51.412;5.436;2023-02-03T07:53:05;3.58;;;1.95;;
73980;SDS011;62348;51.412;5.436;2023-02-03T07:55:33;6.13;;;1.95;;
73980;SDS011;62348;51.412;5.436;2023-02-03T07:57:59;13.57;;;3.53;;
73980;SDS011;62348;51.412;5.436;2023-02-03T08:00:25;5.70;;;1.90;;
73980;SDS011;62348;51.412;5.436;2023-02-03T08:02:50;6.35;;;1.70;;
73980;SDS011;62348;51.412;5.436;2023-02-03T08:05:16;6.28;;;1.95;;
73980;SDS011;62348;51.412;5.436;2023-02-03T08:07:42;7.70;;;1.95;;
73980;SDS011;62348;51.412;5.436;2023-02-03T08:10:09;6.40;;;2.10;;
73980;SDS011;62348;51.412;5.436;2023-02-03T08:12:36;5.72;;;2.30;;
73980;SDS011;62348;51.412;5.436;2023-02-03T08:15:02;7.47;;;2.38;;
73980;SDS011;62348;51.412;5.436;2023-02-03T08:17:28;4.18;;;1.45;;
73980;SDS011;62348;51.412;5.436;2023-02-03T08:19:54;7.43;;;2.10;;
73980;SDS011;62348;51.412;5.436;2023-02-03T08:22:22;6.43;;;2.20;;
73980;SDS011;62348;51.412;5.436;2023-02-03T08:24:47;8.48;;;2.50;;
73980;SDS011;62348;51.412;5.436;2023-02-03T08:27:20;4.32;;;2.15;;
73980;SDS011;62348;51.412;5.436;2023-02-03T08:29:46;5.50;;;2.15;;
73980;SDS011;62348;51.412;5.436;2023-02-03T08:32:13;7.75;;;2.15;;
73980;SDS011;62348;51.412;5.436;2023-02-03T08:34:40;7.10;;;2.47;;
73980;SDS011;62348;51.412;5.436;2023-02-03T08:37:05;7.03;;;2.67;;
73980;SDS011;62348;51.412;5.436;2023-02-03T08:39:31;7.57;;;2.90;;
73980;SDS011;62348;51.412;5.436;2023-02-03T08:41:58;6.88;;;2.85;;
73980;SDS011;62348;51.412;5.436;2023-02-03T08:44:25;3.58;;;1.90;;
73980;SDS011;62348;51.412;5.436;2023-02-03T08:46:51;5.25;;;2.17;;
73980;SDS011;62348;51.412;5.436;2023-02-03T08:49:17;6.70;;;2.33;;
73980;SDS011;62348;51.412;5.436;2023-02-03T08:51:44;6.72;;;2.53;;
73980;SDS011;62348;51.412;5.436;2023-02-03T08:54:12;8.95;;;2.72;;
73980;SDS011;62348;51.412;5.436;2023-02-03T08:56:39;5.53;;;2.50;;
73980;SDS011;62348;51.412;5.436;2023-02-03T08:59:04;6.80;;;2.40;;
73980;SDS011;62348;51.412;5.436;2023-02-03T09:01:30;4.82;;;2.45;;
73980;SDS011;62348;51.412;5.436;2023-02-03T09:03:55;6.55;;;3.05;;
73980;SDS011;62348;51.412;5.436;2023-02-03T09:06:21;7.85;;;3.17;;
73980;SDS011;62348;51.412;5.436;2023-02-03T09:08:47;9.27;;;2.60;;
73980;SDS011;62348;51.412;5.436;2023-02-03T09:11:14;8.35;;;3.42;;
73980;SDS011;62348;51.412;5.436;2023-02-03T09:13:41;6.65;;;2.78;;
73980;SDS011;62348;51.412;5.436;2023-02-03T09:16:13;10.15;;;2.95;;
73980;SDS011;62348;51.412;5.436;2023-02-03T09:18:43;9.00;;;3.15;;
73980;SDS011;62348;51.412;5.436;2023-02-03T09:21:10;8.73;;;2.65;;
73980;SDS011;62348;51.412;5.436;2023-02-03T09:23:37;7.05;;;2.85;;
73980;SDS011;62348;51.412;5.436;2023-02-03T09:26:03;11.35;;;3.00;;
73980;SDS011;62348;51.412;5.436;2023-02-03T09:28:30;8.23;;;2.92;;
73980;SDS011;62348;51.412;5.436;2023-02-03T09:31:05;5.82;;;2.60;;
73980;SDS011;62348;51.412;5.436;2023-02-03T09:33:33;6.85;;;3.22;;
73980;SDS011;62348;51.412;5.436;2023-02-03T09:35:58;6.85;;;2.72;;
73980;SDS011;62348;51.412;5.436;2023-02-03T09:38:24;5.72;;;2.55;;
73980;SDS011;62348;51.412;5.436;2023-02-03T09:40:54;9.60;;;3.50;;
73980;SDS011;62348;51.412;5.436;2023-02-03T09:46:06;4.30;;;2.63;;
73980;SDS011;62348;51.412;5.436;2023-02-03T09:48:38;9.50;;;2.70;;
73980;SDS011;62348;51.412;5.436;2023-02-03T09:52:08;7.40;;;2.60;;
73980;SDS011;62348;51.412;5.436;2023-02-03T09:56:43;8.05;;;2.85;;
73980;SDS011;62348;51.412;5.436;2023-02-03T09:59:14;10.83;;;2.93;;
73980;SDS011;62348;51.412;5.436;2023-02-03T10:02:01;11.25;;;3.00;;
73980;SDS011;62348;51.412;5.436;2023-02-03T10:04:43;9.20;;;2.67;;
73980;SDS011;62348;51.412;5.436;2023-02-03T10:10:25;11.20;;;2.97;;
73980;SDS011;62348;51.412;5.436;2023-02-03T10:18:16;9.75;;;4.93;;
73980;SDS011;62348;51.412;5.436;2023-02-03T10:20:49;10.93;;;2.90;;
73980;SDS011;62348;51.412;5.436;2023-02-03T10:23:29;7.68;;;3.00;;
73980;SDS011;62348;51.412;5.436;2023-02-03T10:26:00;9.27;;;3.05;;
73980;SDS011;62348;51.412;5.436;2023-02-03T10:28:31;9.43;;;3.05;;
73980;SDS011;62348;51.412;5.436;2023-02-03T10:31:05;15.23;;;3.95;;
73980;SDS011;62348;51.412;5.436;2023-02-03T10:33:41;9.38;;;3.28;;
73980;SDS011;62348;51.412;5.436;2023-02-03T10:38:58;12.48;;;2.75;;
73980;SDS011;62348;51.412;5.436;2023-02-03T10:41:38;10.95;;;3.38;;
73980;SDS011;62348;51.412;5.436;2023-02-03T10:44:05;5.85;;;2.25;;
73980;SDS011;62348;51.412;5.436;2023-02-03T10:46:33;14.90;;;4.32;;
73980;SDS011;62348;51.412;5.436;2023-02-03T10:49:02;9.20;;;2.53;;
73980;SDS011;62348;51.412;5.436;2023-02-03T10:51:28;7.57;;;2.72;;
73980;SDS011;62348;51.412;5.436;2023-02-03T10:53:59;11.98;;;2.75;;
73980;SDS011;62348;51.412;5.436;2023-02-03T10:56:26;9.20;;;2.70;;
73980;SDS011;62348;51.412;5.436;2023-02-03T10:58:59;9.55;;;3.08;;
73980;SDS011;62348;51.412;5.436;2023-02-03T11:01:46;10.63;;;2.72;;
73980;SDS011;62348;51.412;5.436;2023-02-03T11:04:29;8.50;;;2.33;;
73980;SDS011;62348;51.412;5.436;2023-02-03T11:06:57;7.85;;;3.20;;
73980;SDS011;62348;51.412;5.436;2023-02-03T11:09:37;5.50;;;2.50;;
73980;SDS011;62348;51.412;5.436;2023-02-03T11:12:05;10.70;;;3.25;;
73980;SDS011;62348;51.412;5.436;2023-02-03T11:14:43;15.32;;;3.10;;
73980;SDS011;62348;51.412;5.436;2023-02-03T11:17:19;10.65;;;2.55;;
73980;SDS011;62348;51.412;5.436;2023-02-03T11:19:47;9.57;;;2.45;;
73980;SDS011;62348;51.412;5.436;2023-02-03T11:22:27;10.68;;;2.92;;
73980;SDS011;62348;51.412;5.436;2023-02-03T11:24:59;6.93;;;3.42;;
73980;SDS011;62348;51.412;5.436;2023-02-03T11:27:31;10.75;;;3.10;;
73980;SDS011;62348;51.412;5.436;2023-02-03T11:30:09;9.32;;;2.47;;
73980;SDS011;62348;51.412;5.436;2023-02-03T11:32:46;9.98;;;2.70;;
73980;SDS011;62348;51.412;5.436;2023-02-03T11:37:41;9.32;;;2.38;;
73980;SDS011;62348;51.412;5.436;2023-02-03T11:42:39;9.52;;;2.50;;
73980;SDS011;62348;51.412;5.436;2023-02-03T11:47:43;11.48;;;3.72;;
73980;SDS011;62348;51.412;5.436;2023-02-03T11:50:16;8.90;;;2.72;;
73980;SDS011;62348;51.412;5.436;2023-02-03T11:52:46;9.40;;;3.08;;
73980;SDS011;62348;51.412;5.436;2023-02-03T12:08:51;9.30;;;2.72;;
73980;SDS011;62348;51.412;5.436;2023-02-03T12:11:43;11.63;;;2.63;;
73980;SDS011;62348;51.412;5.436;2023-02-03T12:19:50;6.43;;;2.95;;
73980;SDS011;62348;51.412;5.436;2023-02-03T12:22:22;12.75;;;2.75;;
73980;SDS011;62348;51.412;5.436;2023-02-03T12:24:58;11.23;;;2.70;;
73980;SDS011;62348;51.412;5.436;2023-02-03T12:30:20;12.15;;;2.85;;
73980;SDS011;62348;51.412;5.436;2023-02-03T12:32:51;13.68;;;2.80;;
73980;SDS011;62348;51.412;5.436;2023-02-03T12:35:19;13.40;;;2.80;;
73980;SDS011;62348;51.412;5.436;2023-02-03T12:37:53;11.13;;;3.03;;
73980;SDS011;62348;51.412;5.436;2023-02-03T12:40:22;9.63;;;2.67;;
73980;SDS011;62348;51.412;5.436;2023-02-03T12:42:53;7.13;;;2.53;;
73980;SDS011;62348;51.412;5.436;2023-02-03T12:45:24;11.45;;;2.50;;
73980;SDS011;62348;51.412;5.436;2023-02-03T12:47:57;11.43;;;3.20;;
73980;SDS011;62348;51.412;5.436;2023-02-03T12:50:39;9.32;;;2.72;;
73980;SDS011;62348;51.412;5.436;2023-02-03T12:55:43;11.27;;;2.45;;
73980;SDS011;62348;51.412;5.436;2023-02-03T13:01:21;12.00;;;3.17;;
73980;SDS011;62348;51.412;5.436;2023-02-03T13:04:07;11.20;;;2.83;;
73980;SDS011;62348;51.412;5.436;2023-02-03T13:12:02;4.15;;;2.50;;
73980;SDS011;62348;51.412;5.436;2023-02-03T13:14:52;3.67;;;2.95;;
73980;SDS011;62348;51.412;5.436;2023-02-03T13:20:32;10.73;;;2.58;;
73980;SDS011;62348;51.412;5.436;2023-02-03T13:23:03;7.90;;;2.65;;
73980;SDS011;62348;51.412;5.436;2023-02-03T13:25:40;5.60;;;2.70;;
73980;SDS011;62348;51.412;5.436;2023-02-03T13:37:09;9.45;;;2.60;;
73980;SDS011;62348;51.412;5.436;2023-02-03T13:42:31;10.68;;;2.70;;
73980;SDS011;62348;51.412;5.436;2023-02-03T13:45:24;11.95;;;2.85;;
73980;SDS011;62348;51.412;5.436;2023-02-03T13:47:55;8.75;;;2.50;;
73980;SDS011;62348;51.412;5.436;2023-02-03T13:50:27;5.90;;;2.67;;
73980;SDS011;62348;51.412;5.436;2023-02-03T13:52:56;9.57;;;3.25;;
73980;SDS011;62348;51.412;5.436;2023-02-03T13:55:37;11.52;;;3.20;;
73980;SDS011;62348;51.412;5.436;2023-02-03T13:58:06;10.52;;;3.20;;
73980;SDS011;62348;51.412;5.436;2023-02-03T14:05:53;10.60;;;3.42;;
73980;SDS011;62348;51.412;5.436;2023-02-03T14:16:28;7.60;;;3.05;;
73980;SDS011;62348;51.412;5.436;2023-02-03T14:25:03;7.57;;;3.47;;
73980;SDS011;62348;51.412;5.436;2023-02-03T14:35:14;7.88;;;2.92;;
73980;SDS011;62348;51.412;5.436;2023-02-03T14:37:53;12.55;;;3.30;;
73980;SDS011;62348;51.412;5.436;2023-02-03T14:43:07;8.20;;;4.03;;
73980;SDS011;62348;51.412;5.436;2023-02-03T14:46:30;5.05;;;3.20;;
73980;SDS011;62348;51.412;5.436;2023-02-03T14:52:26;9.00;;;3.20;;
73980;SDS011;62348;51.412;5.436;2023-02-03T14:57:43;7.95;;;3.40;;
73980;SDS011;62348;51.412;5.436;2023-02-03T15:05:37;6.72;;;2.80;;
73980;SDS011;62348;51.412;5.436;2023-02-03T15:08:03;9.80;;;3.58;;
73980;SDS011;62348;51.412;5.436;2023-02-03T15:10:49;8.77;;;3.83;;
73980;SDS011;62348;51.412;5.436;2023-02-03T15:13:24;10.30;;;3.78;;
73980;SDS011;62348;51.412;5.436;2023-02-03T15:15:56;6.65;;;2.80;;
73980;SDS011;62348;51.412;5.436;2023-02-03T15:20:57;8.82;;;3.30;;
73980;SDS011;62348;51.412;5.436;2023-02-03T15:23:35;7.70;;;3.38;;
73980;SDS011;62348;51.412;5.436;2023-02-03T15:26:13;8.45;;;3.67;;
73980;SDS011;62348;51.412;5.436;2023-02-03T15:28:40;10.48;;;5.03;;
73980;SDS011;62348;51.412;5.436;2023-02-03T15:31:07;9.15;;;4.72;;
73980;SDS011;62348;51.412;5.436;2023-02-03T15:33:43;13.48;;;4.55;;
73980;SDS011;62348;51.412;5.436;2023-02-03T15:36:14;7.53;;;4.00;;
73980;SDS011;62348;51.412;5.436;2023-02-03T15:38:45;10.38;;;3.95;;
73980;SDS011;62348;51.412;5.436;2023-02-03T15:41:23;7.30;;;3.40;;
73980;SDS011;62348;51.412;5.436;2023-02-03T15:43:51;10.82;;;3.97;;
73980;SDS011;62348;51.412;5.436;2023-02-03T15:46:28;9.57;;;4.82;;
73980;SDS011;62348;51.412;5.436;2023-02-03T15:51:48;14.50;;;3.70;;
73980;SDS011;62348;51.412;5.436;2023-02-03T15:54:36;13.18;;;4.63;;
73980;SDS011;62348;51.412;5.436;2023-02-03T15:57:08;6.55;;;3.42;;
73980;SDS011;62348;51.412;5.436;2023-02-03T16:00:30;6.68;;;3.15;;
73980;SDS011;62348;51.412;5.436;2023-02-03T16:02:40;8.10;;;3.17;;
73980;SDS011;62348;51.412;5.436;2023-02-03T16:05:29;6.75;;;4.35;;
73980;SDS011;62348;51.412;5.436;2023-02-03T16:08:23;6.30;;;4.03;;
73980;SDS011;62348;51.412;5.436;2023-02-03T16:11:00;11.85;;;4.32;;
73980;SDS011;62348;51.412;5.436;2023-02-03T16:13:27;11.43;;;4.40;;
73980;SDS011;62348;51.412;5.436;2023-02-03T16:18:37;12.32;;;4.75;;
73980;SDS011;62348;51.412;5.436;2023-02-03T16:21:04;7.88;;;4.70;;
73980;SDS011;62348;51.412;5.436;2023-02-03T16:23:30;10.68;;;4.68;;
73980;SDS011;62348;51.412;5.436;2023-02-03T16:26:08;9.63;;;4.80;;
73980;SDS011;62348;51.412;5.436;2023-02-03T16:28:42;10.05;;;4.18;;
73980;SDS011;62348;51.412;5.436;2023-02-03T16:31:26;9.68;;;4.32;;
73980;SDS011;62348;51.412;5.436;2023-02-03T16:34:17;12.45;;;4.80;;
73980;SDS011;62348;51.412;5.436;2023-02-03T16:37:11;10.65;;;5.40;;
73980;SDS011;62348;51.412;5.436;2023-02-03T16:40:03;7.70;;;4.60;;
73980;SDS011;62348;51.412;5.436;2023-02-03T16:42:47;10.35;;;5.20;;
73980;SDS011;62348;51.412;5.436;2023-02-03T16:45:31;11.50;;;4.93;;
73980;SDS011;62348;51.412;5.436;2023-02-03T16:48:15;12.07;;;5.35;;
73980;SDS011;62348;51.412;5.436;2023-02-03T16:51:02;10.90;;;5.22;;
73980;SDS011;62348;51.412;5.436;2023-02-03T16:53:31;8.93;;;4.72;;
73980;SDS011;62348;51.412;5.436;2023-02-03T16:56:00;9.38;;;5.25;;
73980;SDS011;62348;51.412;5.436;2023-02-03T16:58:28;9.48;;;5.50;;
73980;SDS011;62348;51.412;5.436;2023-02-03T17:00:54;12.48;;;6.70;;
73980;SDS011;62348;51.412;5.436;2023-02-03T17:03:22;11.48;;;8.10;;
73980;SDS011;62348;51.412;5.436;2023-02-03T17:05:51;14.55;;;7.80;;
73980;SDS011;62348;51.412;5.436;2023-02-03T17:08:18;10.80;;;6.90;;
73980;SDS011;62348;51.412;5.436;2023-02-03T17:10:45;8.88;;;5.68;;
73980;SDS011;62348;51.412;5.436;2023-02-03T17:13:12;16.58;;;9.02;;
73980;SDS011;62348;51.412;5.436;2023-02-03T17:15:38;13.23;;;8.13;;
73980;SDS011;62348;51.412;5.436;2023-02-03T17:18:11;19.77;;;9.88;;
73980;SDS011;62348;51.412;5.436;2023-02-03T17:20:44;16.10;;;7.35;;
73980;SDS011;62348;51.412;5.436;2023-02-03T17:23:10;9.20;;;5.30;;
73980;SDS011;62348;51.412;5.436;2023-02-03T17:25:38;13.25;;;6.97;;
73980;SDS011;62348;51.412;5.436;2023-02-03T17:28:04;15.45;;;7.53;;
73980;SDS011;62348;51.412;5.436;2023-02-03T17:30:31;10.70;;;6.00;;
73980;SDS011;62348;51.412;5.436;2023-02-03T17:33:03;12.07;;;6.22;;
73980;SDS011;62348;51.412;5.436;2023-02-03T17:35:39;11.40;;;6.13;;
73980;SDS011;62348;51.412;5.436;2023-02-03T17:38:06;10.82;;;7.32;;